createdAt,value
2018-04-18T00:02:35.829Z,15.53
2018-04-18T00:07:39.153Z,15.20
2018-04-18T00:12:41.658Z,14.07
2018-04-18T00:17:44.104Z,12.40
2018-04-18T00:22:47.342Z,15.37
2018-04-18T00:27:49.810Z,13.93
2018-04-18T00:32:53.034Z,15.53
2018-04-18T00:37:56.268Z,13.93
2018-04-18T00:42:58.753Z,15.97
2018-04-18T00:48:01.227Z,13.10
2018-04-18T00:53:04.562Z,15.20
2018-04-18T00:58:07.019Z,17.13
2018-04-18T01:03:09.465Z,13.57
2018-04-18T01:08:11.935Z,13.73
2018-04-18T01:13:14.398Z,16.23
2018-04-18T01:18:16.842Z,18.03
2018-04-18T01:23:19.297Z,12.90
2018-04-18T01:28:22.525Z,14.03
2018-04-18T01:33:24.974Z,12.93
2018-04-18T01:38:27.421Z,12.47
2018-04-18T01:43:29.901Z,14.03
2018-04-18T01:48:32.353Z,13.73
2018-04-18T01:53:34.838Z,14.77
2018-04-18T01:58:37.286Z,15.50
2018-04-18T02:03:39.732Z,14.07
2018-04-18T02:08:42.193Z,15.53
2018-04-18T02:13:44.653Z,17.73
2018-04-18T02:18:47.114Z,13.57
2018-04-18T02:23:49.641Z,15.03
2018-04-18T02:28:52.107Z,13.83
2018-04-18T02:33:55.333Z,14.10
2018-04-18T02:38:58.557Z,14.43
2018-04-18T02:44:00.997Z,16.70
2018-04-18T02:49:03.450Z,15.27
2018-04-18T02:54:05.906Z,14.43
2018-04-18T02:59:09.118Z,15.27
2018-04-18T03:04:12.338Z,14.60
2018-04-18T03:09:14.800Z,19.57
2018-04-18T03:14:17.249Z,14.80
2018-04-18T03:19:19.699Z,15.17
2018-04-18T03:24:22.914Z,16.53
2018-04-18T03:29:26.156Z,14.30
2018-04-18T03:34:28.593Z,23.33
2018-04-18T03:39:31.085Z,18.40
2018-04-18T03:44:33.633Z,15.97
2018-04-18T03:49:36.084Z,14.37
2018-04-18T03:54:38.618Z,15.30
2018-04-18T03:59:41.111Z,22.67
2018-04-18T04:04:43.549Z,14.27
2018-04-18T04:09:46.006Z,16.90
2018-04-18T04:14:48.483Z,14.10
2018-04-18T04:20:03.021Z,18.17
2018-04-18T04:25:05.506Z,15.10
2018-04-18T04:30:07.994Z,14.10
2018-04-18T04:35:12.783Z,14.70
2018-04-18T04:40:15.990Z,16.20
2018-04-18T04:45:19.927Z,13.53
2018-04-18T04:50:22.429Z,17.23
2018-04-18T04:55:24.913Z,15.53
2018-04-18T05:00:27.365Z,18.50
2018-04-18T05:05:30.591Z,18.50
2018-04-18T05:10:33.811Z,17.47
2018-04-18T05:15:37.041Z,15.33
2018-04-18T05:20:39.501Z,14.60
2018-04-18T05:25:42.753Z,15.47
2018-04-18T05:30:45.253Z,17.80
2018-04-18T05:35:47.698Z,14.40
2018-04-18T05:40:50.921Z,15.60
2018-04-18T05:45:54.138Z,13.57
2018-04-18T05:50:57.443Z,16.03
2018-04-18T05:55:59.845Z,20.70
2018-04-18T06:01:02.314Z,15.90
2018-04-18T06:06:04.764Z,16.27
2018-04-18T06:11:07.226Z,18.07
2018-04-18T06:16:10.542Z,15.03
2018-04-18T06:21:12.993Z,12.77
2018-04-18T06:26:15.529Z,15.10
2018-04-18T06:31:17.990Z,17.27
2018-04-18T06:36:21.210Z,11.33
2018-04-18T06:41:24.421Z,10.97
2018-04-18T06:46:27.646Z,11.50
2018-04-18T06:51:30.109Z,14.07
2018-04-18T06:56:32.566Z,11.27
2018-04-18T07:01:35.030Z,15.97
2018-04-18T07:06:37.525Z,11.30
2018-04-18T07:11:39.973Z,11.37
2018-04-18T07:16:42.425Z,11.30
2018-04-18T07:21:44.905Z,18.13
2018-04-18T07:26:48.130Z,12.17
2018-04-18T07:31:50.583Z,11.43
2018-04-18T07:36:53.802Z,14.40
2018-04-18T07:41:56.260Z,13.53
2018-04-18T07:46:58.709Z,11.17
2018-04-18T07:52:01.193Z,12.57
2018-04-18T07:57:03.641Z,12.40
2018-04-18T08:02:06.214Z,13.73
2018-04-18T08:07:08.653Z,13.03
2018-04-18T08:12:11.882Z,13.87
2018-04-18T08:17:14.372Z,14.27
2018-04-18T08:22:16.829Z,12.87
2018-04-18T08:27:20.077Z,17.57
2018-04-18T08:32:22.532Z,13.77
2018-04-18T08:37:24.981Z,13.63
2018-04-18T08:42:27.437Z,12.77
2018-04-18T08:47:30.766Z,15.37
2018-04-18T08:52:33.218Z,19.07
2018-04-18T08:57:35.749Z,18.67
2018-04-18T09:02:38.250Z,21.77
2018-04-18T09:07:40.701Z,18.53
2018-04-18T09:12:43.162Z,19.37
2018-04-18T09:17:45.721Z,22.13
2018-04-18T09:22:48.217Z,18.13
2018-04-18T09:27:50.673Z,23.47
2018-04-18T09:32:53.487Z,22.50
2018-04-18T09:37:56.701Z,21.33
2018-04-18T09:42:59.913Z,23.57
2018-04-18T09:48:03.134Z,19.93
2018-04-18T09:53:05.638Z,33.50
2018-04-18T09:58:08.147Z,20.37
2018-04-18T10:03:15.653Z,23.83
2018-04-18T10:08:18.134Z,18.93
2018-04-18T10:13:20.590Z,19.67
2018-04-18T10:18:23.818Z,20.97
2018-04-18T10:23:27.144Z,18.47
2018-04-18T10:28:29.602Z,18.40
2018-04-18T10:33:32.059Z,21.10
2018-04-18T10:38:34.526Z,19.50
2018-04-18T10:43:36.978Z,20.13
2018-04-18T10:48:39.514Z,17.90
2018-04-18T10:53:42.008Z,22.17
2018-04-18T10:58:44.462Z,21.23
2018-04-18T11:03:47.685Z,20.57
2018-04-18T11:08:50.922Z,19.00
2018-04-18T11:13:53.378Z,18.97
2018-04-18T11:18:56.617Z,16.13
2018-04-18T11:23:59.061Z,11.77
2018-04-18T11:29:01.509Z,13.80
2018-04-18T11:34:04.001Z,14.53
2018-04-18T11:39:06.490Z,9.93
2018-04-18T11:44:08.967Z,9.93
2018-04-18T11:49:12.177Z,12.50
2018-04-18T11:54:15.396Z,12.70
2018-04-18T11:59:17.842Z,12.40
2018-04-18T12:04:20.289Z,11.63
2018-04-18T12:09:22.778Z,11.73
2018-04-18T12:14:25.233Z,15.03
2018-04-18T12:19:27.686Z,16.37
2018-04-18T12:24:30.138Z,17.93
2018-04-18T12:29:33.475Z,13.77
2018-04-18T12:34:35.922Z,19.50
2018-04-18T12:39:38.387Z,14.50
2018-04-18T12:44:40.845Z,15.03
2018-04-18T12:49:43.302Z,16.07
2018-04-18T12:54:45.747Z,15.67
2018-04-18T12:59:48.189Z,15.97
2018-04-18T13:04:51.417Z,14.43
2018-04-18T13:09:54.637Z,11.07
2018-04-18T13:14:57.085Z,11.20
2018-04-18T13:19:59.539Z,12.33
2018-04-18T13:25:02.006Z,12.13
2018-04-18T13:30:05.233Z,10.10
2018-04-18T13:35:08.724Z,11.17
2018-04-18T13:40:11.158Z,9.50
2018-04-18T13:45:13.668Z,16.17
2018-04-18T13:50:16.141Z,13.20
2018-04-18T13:55:18.582Z,11.80
2018-04-18T14:00:21.431Z,12.97
2018-04-18T14:05:25.889Z,10.33
2018-04-18T14:10:28.346Z,8.57
2018-04-18T14:15:30.841Z,8.57
2018-04-18T14:20:33.293Z,10.33
2018-04-18T14:25:35.834Z,7.87
2018-04-18T14:30:38.277Z,9.40
2018-04-18T14:35:40.814Z,6.10
2018-04-18T14:40:43.337Z,9.87
2018-04-18T14:45:45.808Z,8.83
2018-04-18T14:50:49.014Z,7.50
2018-04-18T14:55:51.507Z,9.53
2018-04-18T15:00:57.319Z,9.73
2018-04-18T15:06:00.461Z,10.77
2018-04-18T15:11:03.665Z,6.57
2018-04-18T15:16:12.229Z,10.40
2018-04-18T15:21:15.646Z,12.87
2018-04-18T15:26:18.150Z,10.87
2018-04-18T15:31:20.607Z,8.20
2018-04-18T15:36:23.817Z,10.03
2018-04-18T15:41:27.049Z,8.60
2018-04-18T15:46:29.550Z,6.70
2018-04-18T15:51:31.993Z,6.20
2018-04-18T15:56:34.823Z,5.83
2018-04-18T16:01:38.164Z,6.67
2018-04-18T16:06:59.897Z,7.27
2018-04-18T16:12:02.338Z,7.17
2018-04-18T16:17:04.883Z,6.03
2018-04-18T16:22:27.506Z,8.03
2018-04-18T16:27:29.942Z,5.83
2018-04-18T16:32:32.405Z,9.73
2018-04-18T16:37:34.842Z,8.17
2018-04-18T16:42:38.054Z,8.80
2018-04-18T16:47:40.576Z,5.27
2018-04-18T16:52:52.182Z,5.33
2018-04-18T16:57:56.150Z,14.23
2018-04-18T17:02:58.666Z,9.27
2018-04-18T17:08:01.113Z,8.13
2018-04-18T17:13:04.619Z,5.90
2018-04-18T17:18:07.412Z,12.63
2018-04-18T17:23:09.869Z,6.10
2018-04-18T17:28:13.314Z,8.67
2018-04-18T17:33:16.999Z,5.00
2018-04-18T17:38:19.442Z,6.87
2018-04-18T17:43:21.977Z,8.90
2018-04-18T17:48:31.392Z,8.17
2018-04-18T17:53:33.931Z,5.17
2018-04-18T17:59:03.126Z,5.17
2018-04-18T18:04:08.193Z,7.30
2018-04-18T18:09:10.717Z,7.03
2018-04-18T18:14:13.166Z,6.60
2018-04-18T18:19:16.390Z,10.07
2018-04-18T18:24:18.896Z,7.03
2018-04-18T18:34:34.354Z,7.23
2018-04-18T18:39:36.827Z,6.43
2018-04-18T18:44:39.285Z,5.00
2018-04-18T18:49:43.581Z,9.17
2018-04-18T18:54:46.028Z,8.47
2018-04-18T18:59:49.300Z,8.97
2018-04-18T19:04:51.765Z,14.77
2018-04-18T19:09:54.292Z,10.00
2018-04-18T19:14:56.764Z,7.43
2018-04-18T19:19:59.226Z,6.50
2018-04-18T19:25:01.677Z,6.30
2018-04-18T19:30:04.312Z,10.93
2018-04-18T19:35:06.756Z,6.13
2018-04-18T19:40:09.223Z,9.27
2018-04-18T19:45:11.795Z,9.27
2018-04-18T19:50:14.245Z,7.37
2018-04-18T19:55:16.782Z,10.70
2018-04-18T20:00:19.964Z,7.77
2018-04-18T20:05:23.183Z,10.10
2018-04-18T20:10:27.374Z,8.07
2018-04-18T20:15:29.918Z,8.83
2018-04-18T20:20:32.404Z,7.83
2018-04-18T20:25:35.755Z,6.90
2018-04-18T20:30:38.198Z,8.53
2018-04-18T20:35:44.542Z,9.53
2018-04-18T20:40:56.767Z,6.20
2018-04-18T20:45:59.214Z,6.47
2018-04-18T20:51:12.734Z,7.43
2018-04-18T20:56:16.347Z,6.83
2018-04-18T21:01:19.275Z,5.47
2018-04-18T21:06:21.781Z,7.00
2018-04-18T21:11:24.235Z,7.40
2018-04-18T21:16:27.857Z,7.87
2018-04-18T21:21:30.390Z,8.97
2018-04-18T21:26:34.002Z,8.07
2018-04-18T21:31:36.502Z,8.53
2018-04-18T21:36:40.190Z,6.73
2018-04-18T21:41:45.797Z,9.70
2018-04-18T21:46:48.238Z,13.93
2018-04-18T21:52:03.073Z,12.67
2018-04-18T21:57:05.560Z,10.03
2018-04-18T22:02:08.018Z,11.80
2018-04-18T22:07:12.324Z,11.70
2018-04-18T22:12:38.599Z,12.33
2018-04-18T22:17:41.919Z,14.30
2018-04-18T22:22:44.589Z,12.80
2018-04-18T22:27:47.104Z,15.37
2018-04-18T22:32:49.648Z,15.83
2018-04-18T22:37:52.135Z,17.73
2018-04-18T22:42:54.734Z,14.40
2018-04-18T22:47:57.177Z,15.80
2018-04-18T22:52:59.637Z,16.30
2018-04-18T22:58:13.464Z,15.17
2018-04-18T23:03:21.778Z,23.43
2018-04-18T23:08:25.000Z,22.37
2018-04-18T23:13:27.518Z,17.43
2018-04-18T23:18:29.963Z,15.03
2018-04-18T23:23:33.206Z,17.83
2018-04-18T23:28:35.674Z,17.00
2018-04-18T23:33:38.901Z,18.80
2018-04-18T23:38:41.618Z,19.80
2018-04-18T23:43:47.070Z,13.57
2018-04-18T23:48:51.111Z,18.67
2018-04-18T23:53:53.570Z,12.43
2018-04-18T23:58:56.780Z,16.57
